Time;durP1;ratioP1;P1;durP2;ratioP2;P2;SDS_P1;SDS_P2;PMS_P1;PMS_P2;Temp;Humidity;BMP_temperature;BMP_pressure;BME280_temperature;BME280_humidity;BME280_pressure;Samples;Min_cycle;Max_cycle;Signal;HPM_P1;HPM_P2
2022/01/28 00:01:41;;;;;;;29.80;22.00;;;;;;;18.54;41.24;101967.25;5012283;28;19921;-77
2022/01/28 00:04:50;;;;;;;32.00;22.15;;;;;;;18.53;41.17;101965.53;5011913;28;20058;-77
2022/01/28 00:07:24;;;;;;;28.52;21.80;;;;;;;18.56;41.04;101967.16;5014255;28;20504;-77
2022/01/28 00:10:22;;;;;;;28.25;21.85;;;;;;;18.55;40.94;101968.94;5013726;28;20057;-77
2022/01/28 00:39:18;;;;;;;32.22;22.60;;;;;;;18.67;40.56;101981.56;4971927;28;20063;-76
2022/01/28 00:41:51;;;;;;;29.55;22.10;;;;;;;18.67;40.60;101975.34;4972423;28;20046;-76
2022/01/28 00:44:18;;;;;;;30.48;22.13;;;;;;;18.69;40.58;101973.44;4972216;28;20507;-76
2022/01/28 00:46:46;;;;;;;27.08;21.67;;;;;;;18.67;41.00;101978.88;4972312;28;20051;-76
2022/01/28 00:49:14;;;;;;;30.35;23.20;;;;;;;18.70;40.87;101993.97;4972388;28;20065;-76
2022/01/28 00:51:44;;;;;;;27.42;22.17;;;;;;;18.68;40.71;102004.78;4971253;28;20462;-77
2022/01/28 00:54:12;;;;;;;31.65;22.58;;;;;;;18.68;40.81;101996.72;4972658;28;20185;-76
2022/01/28 00:56:42;;;;;;;30.55;23.10;;;;;;;18.68;40.64;101987.81;4972452;28;20059;-77
2022/01/28 00:59:21;;;;;;;29.75;23.00;;;;;;;18.68;40.60;101990.50;4956047;28;20379;-77
2022/01/28 01:02:07;;;;;;;28.45;22.33;;;;;;;18.68;40.60;101980.63;4970989;28;20042;-77
2022/01/28 01:04:34;;;;;;;28.48;22.27;;;;;;;18.70;40.59;101976.03;4972144;28;20062;-77
2022/01/28 01:07:03;;;;;;;27.80;21.48;;;;;;;18.70;40.76;101981.41;4972098;28;20055;-76
2022/01/28 01:09:30;;;;;;;31.95;23.98;;;;;;;18.70;40.71;101977.88;4971932;28;20065;-76
2022/01/28 01:11:57;;;;;;;29.98;21.95;;;;;;;18.69;40.87;101968.94;4970889;28;20047;-76
2022/01/28 01:14:25;;;;;;;30.63;23.13;;;;;;;18.70;40.84;101976.03;4970934;28;20054;-76
2022/01/28 01:17:09;;;;;;;31.63;22.77;;;;;;;18.70;40.67;101964.47;4997772;28;20066;-76
2022/01/28 01:19:41;;;;;;;30.92;23.05;;;;;;;18.71;40.94;101968.84;5013210;28;20057;-77
2022/01/28 01:22:10;;;;;;;29.48;23.25;;;;;;;18.72;40.72;101962.56;5013671;28;20054;-77
2022/01/28 01:24:48;;;;;;;31.67;23.48;;;;;;;18.71;40.87;101964.34;5012874;28;20050;-76
2022/01/28 01:27:17;;;;;;;30.80;23.25;;;;;;;18.72;40.84;101960.72;5011778;28;20053;-76
2022/01/28 01:29:46;;;;;;;32.50;23.92;;;;;;;18.72;40.79;101944.63;5011872;28;20053;-77
2022/01/28 01:32:16;;;;;;;32.17;23.50;;;;;;;18.73;40.89;101942.81;5011647;28;20038;-77
2022/01/28 01:34:44;;;;;;;32.70;25.10;;;;;;;18.73;40.89;101949.03;5012940;28;20046;-77
2022/01/28 01:37:12;;;;;;;32.45;23.55;;;;;;;18.75;40.69;101948.91;4994640;28;20054;-77
2022/01/28 01:39:42;;;;;;;32.97;24.80;;;;;;;18.74;41.01;101948.06;5011033;28;20481;-77
2022/01/28 01:52:30;;;;;;;32.67;24.67;;;;;;;18.76;40.65;101918.47;5012384;28;20046;-77
2022/01/28 01:54:57;;;;;;;36.13;24.90;;;;;;;18.76;40.88;101900.53;5011887;28;20049;-77
2022/01/28 01:57:25;;;;;;;34.40;24.75;;;;;;;18.76;40.68;101903.22;5011606;28;20065;-77
2022/01/28 01:59:52;;;;;;;35.50;26.00;;;;;;;18.76;40.60;101897.00;5010942;28;20438;-77
2022/01/28 02:02:19;;;;;;;34.08;25.60;;;;;;;18.76;40.57;101891.63;5010140;28;20069;-77
2022/01/28 02:04:47;;;;;;;38.35;25.77;;;;;;;18.76;40.54;101897.00;5011881;28;20377;-77
2022/01/28 02:07:18;;;;;;;36.40;25.67;;;;;;;18.75;40.78;101896.13;5010725;28;20049;-77
2022/01/28 02:09:45;;;;;;;33.42;24.85;;;;;;;18.76;40.61;101905.06;5012050;28;20474;-76
2022/01/28 02:12:13;;;;;;;39.47;26.80;;;;;;;18.76;40.50;101891.63;5011758;28;20060;-76
2022/01/28 02:14:40;;;;;;;34.33;25.88;;;;;;;18.76;40.64;101897.88;5011862;28;20057;-76
2022/01/28 02:17:08;;;;;;;35.17;25.00;;;;;;;18.75;40.67;101871.13;5011247;28;20049;-76
2022/01/28 02:19:36;;;;;;;30.95;24.27;;;;;;;18.75;40.47;101880.03;5011803;28;20054;-76
2022/01/28 02:22:04;;;;;;;33.17;26.35;;;;;;;18.76;40.51;101873.72;5011428;28;20049;-76
2022/01/28 02:24:41;;;;;;;33.20;24.65;;;;;;;18.76;40.38;101860.31;5011409;28;20048;-77
2022/01/28 02:27:11;;;;;;;35.25;24.83;;;;;;;18.75;40.60;101861.25;5010553;28;20052;-77
2022/01/28 02:29:39;;;;;;;32.17;25.30;;;;;;;18.76;40.49;101854.94;5012082;28;20046;-76
2022/01/28 02:32:08;;;;;;;32.20;25.00;;;;;;;18.76;40.46;101856.78;5011931;28;20042;-76
2022/01/28 02:34:38;;;;;;;33.80;24.35;;;;;;;18.76;40.50;101859.44;5011512;28;20053;-77
2022/01/28 02:37:06;;;;;;;34.00;25.13;;;;;;;18.75;40.39;101861.25;5011060;28;20046;-77
2022/01/28 02:39:33;;;;;;;34.35;26.23;;;;;;;18.75;40.54;101866.59;5011655;28;20057;-77
2022/01/28 02:42:12;;;;;;;33.55;25.08;;;;;;;18.75;40.60;101852.34;5010143;28;20393;-77
2022/01/28 02:44:53;;;;;;;32.42;24.15;;;;;;;18.74;40.48;101854.16;5012112;28;20042;-77
2022/01/28 02:47:31;;;;;;;33.08;24.58;;;;;;;18.74;40.49;101854.16;5011750;28;20049;-77
2022/01/28 02:49:59;;;;;;;34.75;25.38;;;;;;;18.75;40.63;101839.78;5011817;28;20057;-77
2022/01/28 02:52:54;;;;;;;35.22;24.88;;;;;;;18.74;40.54;101832.72;5009709;28;20050;-77
2022/01/28 02:55:16;;;;;;;33.45;24.95;;;;;;;18.74;40.53;101842.59;5012350;28;20404;-77
2022/01/28 02:57:52;;;;;;;32.20;25.35;;;;;;;18.74;40.44;101839.91;5012142;28;20046;-77
2022/01/28 03:00:19;;;;;;;35.90;25.85;;;;;;;18.74;40.75;101839.91;5012950;28;20057;-77
2022/01/28 03:02:47;;;;;;;32.28;24.30;;;;;;;18.75;40.61;101833.56;5011183;28;20448;-77
2022/01/28 03:05:30;;;;;;;31.67;24.08;;;;;;;18.74;40.52;101821.97;5009898;28;20405;-77
2022/01/28 03:08:00;;;;;;;;;;;;;;;18.74;40.48;101821.97;5010329;28;20054;-76
2022/01/28 03:10:31;;;;;;;35.75;24.17;;;;;;;18.74;40.44;101838.06;5011739;28;19960;-76
2022/01/28 03:15:38;;;;;;;29.38;22.33;;;;;;;18.72;40.69;101841.84;5011853;28;20054;-77
2022/01/28 03:18:19;;;;;;;28.85;22.25;;;;;;;18.73;40.68;101840.88;5009950;28;20054;-76
2022/01/28 03:23:20;;;;;;;29.38;22.25;;;;;;;18.71;40.59;101824.00;5011133;28;20049;-76
2022/01/28 03:25:48;;;;;;;31.83;22.55;;;;;;;18.69;40.46;101834.81;5011465;28;20053;-75
2022/01/28 03:28:19;;;;;;;28.63;22.70;;;;;;;18.70;40.57;101847.28;5011700;28;20396;-76
2022/01/28 03:30:47;;;;;;;30.52;23.30;;;;;;;18.69;40.59;101833.97;5011582;28;20048;-77
2022/01/28 03:33:14;;;;;;;28.42;22.25;;;;;;;18.69;40.37;101829.44;5008951;28;20046;-76
2022/01/28 03:35:41;;;;;;;29.50;22.48;;;;;;;18.68;40.50;101838.47;5011234;28;20054;-77
2022/01/28 03:38:12;;;;;;;29.02;21.90;;;;;;;18.68;40.53;101827.75;5013352;28;20054;-76
2022/01/28 03:40:42;;;;;;;29.63;21.95;;;;;;;18.67;40.58;101814.41;5014165;28;20053;-77
2022/01/28 03:43:09;;;;;;;28.70;21.77;;;;;;;18.66;40.64;101831.47;5013330;28;20505;-77
2022/01/28 03:45:37;;;;;;;28.60;21.65;;;;;;;18.66;40.48;101823.44;5014074;28;20056;-77
2022/01/28 03:48:05;;;;;;;31.10;22.98;;;;;;;18.65;40.56;101809.16;5014379;28;20049;-76
2022/01/28 03:50:34;;;;;;;27.70;21.00;;;;;;;18.64;40.68;101783.31;5012234;28;20050;-76
2022/01/28 03:53:03;;;;;;;27.50;21.38;;;;;;;18.64;40.57;101777.09;5014440;28;20046;-76
2022/01/28 03:55:30;;;;;;;28.98;20.38;;;;;;;18.64;40.55;101780.63;5013762;28;20050;-76
2022/01/28 03:57:58;;;;;;;29.17;22.13;;;;;;;18.64;40.49;101761.84;5012284;28;20042;-76
2022/01/28 04:00:29;;;;;;;29.88;22.08;;;;;;;18.63;40.40;101754.75;5012536;28;20485;-76
2022/01/28 04:03:36;;;;;;;25.17;19.77;;;;;;;18.65;40.24;101735.91;5014083;28;20054;-76
2022/01/28 04:14:08;;;;;;;28.25;21.25;;;;;;;18.66;40.05;101746.50;5010979;28;20046;-76
2022/01/28 04:19:22;;;;;;;26.40;20.73;;;;;;;18.67;40.09;101750.03;5013743;28;20054;-76
2022/01/28 04:21:50;;;;;;;25.02;18.67;;;;;;;18.67;39.97;101739.31;5013303;28;20045;-76
2022/01/28 04:24:18;;;;;;;25.02;19.98;;;;;;;18.66;39.87;101742.97;5011953;28;20049;-76
2022/01/28 04:26:45;;;;;;;24.67;19.33;;;;;;;18.67;39.99;101723.22;5013697;28;20045;-76
2022/01/28 04:29:13;;;;;;;27.63;20.20;;;;;;;18.66;39.88;101725.06;5011670;28;20080;-76
2022/01/28 04:31:43;;;;;;;28.77;20.27;;;;;;;18.67;39.96;101725.91;5013742;28;20373;-76
2022/01/28 04:34:11;;;;;;;24.33;18.48;;;;;;;18.66;39.95;101737.59;5013691;28;20046;-76
2022/01/28 04:36:50;;;;;;;26.83;19.67;;;;;;;18.64;40.00;101743.09;5013996;28;20068;-77
2022/01/28 04:39:29;;;;;;;24.38;18.27;;;;;;;18.64;40.00;101744.91;5012281;28;20061;-77
2022/01/28 04:44:56;;;;;;;24.85;19.48;;;;;;;18.63;40.00;101727.94;5010770;28;20054;-76
2022/01/28 04:53:15;;;;;;;24.52;18.75;;;;;;;18.62;39.89;101723.53;4953086;29;20082;-76
2022/01/28 04:58:29;;;;;;;26.15;19.73;;;;;;;18.60;39.86;101720.13;4952812;28;20082;-76
2022/01/28 05:17:06;;;;;;;22.17;17.38;;;;;;;18.56;39.99;101761.53;4951557;29;20051;-76
2022/01/28 05:27:44;;;;;;;20.75;16.45;;;;;;;18.56;39.85;101774.06;4990603;28;20073;-76
2022/01/28 05:30:12;;;;;;;22.88;18.02;;;;;;;18.54;39.82;101771.47;5012308;28;20050;-75
2022/01/28 05:32:39;;;;;;;19.58;14.93;;;;;;;18.54;39.81;101788.44;5010784;28;20042;-76
2022/01/28 05:35:07;;;;;;;19.08;15.43;;;;;;;18.54;39.97;101806.34;5012555;28;20049;-75
2022/01/28 05:37:34;;;;;;;18.73;16.15;;;;;;;18.55;39.89;101805.38;5012033;28;20054;-76
2022/01/28 05:40:03;;;;;;;19.95;16.10;;;;;;;18.54;39.79;101807.19;5012475;28;20046;-76
2022/01/28 05:42:30;;;;;;;20.23;16.15;;;;;;;18.54;39.98;101825.97;5012665;28;20046;-76
2022/01/28 05:44:58;;;;;;;20.50;15.63;;;;;;;18.54;39.97;101847.41;5012150;28;20046;-76
2022/01/28 05:47:27;;;;;;;17.67;14.32;;;;;;;18.54;40.18;101839.38;5010793;28;20054;-76
2022/01/28 05:49:54;;;;;;;17.67;15.13;;;;;;;18.54;39.87;101839.38;5012555;28;20053;-76
2022/01/28 05:52:22;;;;;;;19.02;15.07;;;;;;;18.54;40.10;101841.19;5012628;28;20038;-77
2022/01/28 05:54:49;;;;;;;19.80;15.32;;;;;;;18.54;40.16;101857.28;5010611;28;20060;-76
2022/01/28 05:57:16;;;;;;;20.45;14.20;;;;;;;18.54;40.20;101865.34;5012937;28;20389;-76
2022/01/28 05:59:44;;;;;;;18.40;14.63;;;;;;;18.53;40.14;101871.66;5010190;28;20057;-76
2022/01/28 06:02:11;;;;;;;18.70;14.15;;;;;;;18.52;40.17;101865.44;5011912;28;20047;-76
2022/01/28 06:04:39;;;;;;;16.52;13.95;;;;;;;18.52;40.09;101867.28;5011211;28;20041;-75
2022/01/28 06:07:06;;;;;;;18.40;14.77;;;;;;;18.51;40.19;101874.47;5011516;28;20049;-75
2022/01/28 06:09:34;;;;;;;20.17;14.20;;;;;;;18.52;40.18;101878.00;5010523;28;20398;-76
2022/01/28 06:12:01;;;;;;;18.23;14.50;;;;;;;18.52;40.09;101888.72;5011269;28;20042;-76
2022/01/28 06:14:29;;;;;;;17.92;13.55;;;;;;;18.51;40.28;101892.34;5011841;28;20053;-76
2022/01/28 06:16:56;;;;;;;15.15;12.93;;;;;;;18.51;40.37;101876.25;5009787;28;20061;-76
2022/01/28 06:19:23;;;;;;;16.50;13.23;;;;;;;18.51;40.25;101876.25;5011717;28;20042;-76
2022/01/28 06:21:51;;;;;;;16.13;13.20;;;;;;;18.49;39.91;101897.81;5009595;28;20413;-76
2022/01/28 06:24:18;;;;;;;17.83;14.15;;;;;;;18.49;40.16;101905.00;5010492;28;20054;-76
2022/01/28 06:26:47;;;;;;;15.57;12.88;;;;;;;18.50;39.98;101910.25;5009348;28;20050;-76
2022/01/28 06:29:14;;;;;;;15.15;13.05;;;;;;;18.50;40.16;101914.75;5010327;28;20053;-76
2022/01/28 06:31:43;;;;;;;17.35;13.50;;;;;;;18.49;40.10;101915.72;5008847;28;20053;-76
2022/01/28 06:34:11;;;;;;;15.93;12.13;;;;;;;18.49;39.92;101915.72;5010093;28;20050;-76
2022/01/28 06:36:38;;;;;;;14.40;12.60;;;;;;;18.48;40.03;101914.03;5011990;28;20119;-76
2022/01/28 06:39:05;;;;;;;14.68;11.77;;;;;;;18.48;40.01;101922.91;5011583;28;20054;-76
2022/01/28 06:41:33;;;;;;;15.70;13.35;;;;;;;18.48;40.00;101927.44;5012281;28;20050;-76
2022/01/28 06:44:00;;;;;;;13.85;11.57;;;;;;;18.47;39.84;101923.00;5011514;28;20049;-76
2022/01/28 06:46:28;;;;;;;15.73;11.50;;;;;;;18.46;39.91;101915.94;5011417;28;20050;-76
2022/01/28 06:48:55;;;;;;;14.70;11.48;;;;;;;18.46;39.99;101918.59;5011795;28;20050;-76
2022/01/28 06:51:22;;;;;;;13.88;12.05;;;;;;;18.46;39.93;101924.81;5011052;28;20377;-76
2022/01/28 06:53:50;;;;;;;13.82;11.23;;;;;;;18.45;40.00;101920.44;5009627;28;20038;-76
2022/01/28 06:56:17;;;;;;;11.82;10.07;;;;;;;18.45;40.00;101911.53;5010132;28;20056;-77
2022/01/28 06:58:44;;;;;;;13.82;11.10;;;;;;;18.44;39.94;101923.22;5010897;28;20050;-77
2022/01/28 07:01:12;;;;;;;15.02;11.73;;;;;;;18.44;39.97;101921.41;5011224;28;20045;-77
2022/01/28 07:03:40;;;;;;;14.15;11.43;;;;;;;18.44;39.94;101932.13;5011047;28;20477;-77
2022/01/28 07:06:07;;;;;;;14.30;11.60;;;;;;;18.44;39.97;101937.50;4993414;28;20524;-77
2022/01/28 07:08:35;;;;;;;14.27;11.68;;;;;;;18.43;39.70;101943.81;5010798;28;20049;-77
2022/01/28 07:11:02;;;;;;;13.43;10.88;;;;;;;18.44;39.88;101936.63;4994285;28;20433;-77
2022/01/28 07:13:29;;;;;;;12.32;10.20;;;;;;;18.43;39.88;101945.63;5014314;28;20049;-77
2022/01/28 07:15:57;;;;;;;14.00;10.85;;;;;;;18.43;39.95;101951.88;5014337;28;20405;-77
2022/01/28 07:18:24;;;;;;;16.08;11.50;;;;;;;18.44;40.14;101955.41;5013525;28;20046;-76
2022/01/28 07:20:52;;;;;;;13.95;11.13;;;;;;;18.43;40.07;101956.34;5013868;28;20057;-76
2022/01/28 07:23:19;;;;;;;19.27;10.07;;;;;;;18.41;40.14;101956.44;5013364;28;20523;-76
2022/01/28 07:25:46;;;;;;;10.40;9.30;;;;;;;18.40;40.51;101967.28;5013917;28;20470;-76
2022/01/28 07:28:14;;;;;;;14.82;10.05;;;;;;;18.41;40.26;101974.34;5011503;28;20077;-76
2022/01/28 07:30:41;;;;;;;12.23;10.30;;;;;;;18.40;40.60;101978.88;5013215;28;20057;-76
2022/01/28 07:33:10;;;;;;;14.25;10.73;;;;;;;18.39;40.85;101976.25;5011748;28;20054;-76
2022/01/28 07:35:38;;;;;;;12.23;10.38;;;;;;;18.39;40.91;101987.88;5013546;28;20050;-76
2022/01/28 07:38:05;;;;;;;13.98;10.63;;;;;;;18.37;40.93;101986.25;5013112;28;20496;-76
2022/01/28 07:40:33;;;;;;;16.83;12.25;;;;;;;18.32;39.46;101991.91;5011869;28;20061;-77
2022/01/28 07:43:00;;;;;;;21.70;14.57;;;;;;;18.27;37.88;102000.22;5013674;28;20045;-76
2022/01/28 07:45:28;;;;;;;21.02;15.82;;;;;;;18.22;37.40;101996.09;5013526;28;20050;-76
2022/01/28 07:47:55;;;;;;;24.83;15.75;;;;;;;18.17;36.88;102007.13;5012852;28;20057;-76
2022/01/28 07:50:22;;;;;;;21.15;14.45;;;;;;;18.13;37.55;102002.91;5013150;28;20046;-78
2022/01/28 07:52:50;;;;;;;17.25;12.90;;;;;;;18.13;37.99;102018.13;5012970;28;20053;-76
2022/01/28 07:55:19;;;;;;;19.58;13.52;;;;;;;18.12;37.84;102040.53;5013260;28;20394;-76
2022/01/28 07:57:46;;;;;;;21.02;13.88;;;;;;;18.11;37.56;102057.53;5012929;28;20057;-77
2022/01/28 08:00:14;;;;;;;19.90;13.48;;;;;;;18.09;38.41;102052.28;5013121;28;20052;-78
2022/01/28 08:02:43;;;;;;;19.45;13.00;;;;;;;18.11;38.64;102045.03;5012939;28;20042;-75
2022/01/28 08:05:12;;;;;;;20.67;14.23;;;;;;;18.12;38.71;102032.50;5011585;28;20069;-76
2022/01/28 08:07:40;;;;;;;21.63;13.63;;;;;;;18.14;38.77;102034.09;5011791;28;20050;-76
2022/01/28 08:10:07;;;;;;;18.83;13.63;;;;;;;18.16;38.63;102036.69;5011976;28;20046;-76
2022/01/28 08:12:52;;;;;;;17.05;12.32;;;;;;;18.17;38.83;102052.66;5011010;28;20057;-76
2022/01/28 08:15:20;;;;;;;21.48;13.40;;;;;;;18.18;38.70;102065.09;5013164;28;20052;-76
2022/01/28 08:17:49;;;;;;;17.40;12.50;;;;;;;18.19;38.74;102077.56;5012749;28;20049;-76
2022/01/28 08:20:16;;;;;;;18.90;12.65;;;;;;;18.20;39.01;102095.38;5011290;28;20062;-76
2022/01/28 08:22:49;;;;;;;17.83;12.65;;;;;;;18.20;38.63;102091.84;5012665;28;20054;-76
2022/01/28 08:25:20;;;;;;;19.10;13.20;;;;;;;18.22;38.65;102112.22;5012541;28;20482;-76
2022/01/28 08:27:48;;;;;;;19.52;12.73;;;;;;;18.21;38.79;102113.19;5012459;28;20550;-76
2022/01/28 08:30:21;;;;;;;19.50;13.23;;;;;;;18.22;38.77;102114.03;5012596;28;20049;-76
2022/01/28 08:32:49;;;;;;;17.38;12.43;;;;;;;18.22;38.66;102108.66;5012020;28;20073;-76
2022/01/28 08:35:18;;;;;;;18.33;12.60;;;;;;;18.22;38.70;102119.41;5012305;28;20416;-76
2022/01/28 08:37:46;;;;;;;19.30;13.27;;;;;;;18.23;38.76;102139.88;5010453;28;20042;-76
2022/01/28 08:40:14;;;;;;;14.63;11.73;;;;;;;18.22;38.70;102124.75;5012571;28;20053;-76
2022/01/28 08:42:42;;;;;;;19.20;12.25;;;;;;;18.22;38.73;102127.44;5010851;28;20050;-76
2022/01/28 08:45:10;;;;;;;19.23;13.18;;;;;;;18.22;38.76;102136.34;5011757;28;20065;-76
2022/01/28 08:47:38;;;;;;;18.27;12.75;;;;;;;18.21;38.81;102153.38;5012179;28;20050;-76
2022/01/28 08:50:08;;;;;;;17.10;11.40;;;;;;;18.21;38.60;102166.78;5010288;28;20507;-76
2022/01/28 08:52:38;;;;;;;17.75;12.55;;;;;;;18.21;38.94;102166.78;5010791;28;20062;-76
2022/01/28 08:55:08;;;;;;;15.23;12.15;;;;;;;18.20;38.67;102167.75;5011816;28;20045;-76
2022/01/28 08:57:36;;;;;;;19.38;13.07;;;;;;;18.20;39.05;102175.78;5011949;28;20046;-76
2022/01/28 09:00:07;;;;;;;16.95;13.07;;;;;;;18.21;38.67;102182.88;5011873;28;20504;-76
2022/01/28 09:02:35;;;;;;;16.10;11.80;;;;;;;18.21;38.74;102193.59;5012345;28;20042;-76
2022/01/28 09:05:02;;;;;;;17.17;12.55;;;;;;;18.21;38.74;102188.22;5011705;28;20041;-76
2022/01/28 09:07:30;;;;;;;15.63;11.35;;;;;;;18.21;38.81;102203.44;5011665;28;20057;-76
2022/01/28 09:10:10;;;;;;;17.38;12.20;;;;;;;18.22;38.63;102205.16;5011643;28;20050;-76
2022/01/28 09:12:47;;;;;;;17.52;11.45;;;;;;;18.22;38.63;102205.16;5011915;28;20058;-76
2022/01/28 09:15:15;;;;;;;17.83;12.70;;;;;;;18.22;38.78;102213.22;5012199;28;20057;-76
2022/01/28 09:17:54;;;;;;;16.48;12.38;;;;;;;18.22;38.87;102221.25;5011863;28;20057;-76
2022/01/28 09:20:28;;;;;;;17.98;12.13;;;;;;;18.21;38.57;102214.16;4994960;28;20405;-76
2022/01/28 09:22:57;;;;;;;16.55;11.93;;;;;;;18.21;38.60;102235.63;5011276;28;20056;-76
2022/01/28 09:25:25;;;;;;;14.50;10.95;;;;;;;18.21;38.60;102247.19;5012149;28;20038;-76
2022/01/28 09:27:54;;;;;;;19.50;12.35;;;;;;;18.21;38.64;102246.34;5010346;28;20053;-76
2022/01/28 09:30:22;;;;;;;20.08;13.20;;;;;;;18.22;38.62;102258.78;5011429;28;20045;-76
2022/01/28 09:32:49;;;;;;;15.93;11.18;;;;;;;18.21;38.57;102271.31;5010826;28;20046;-76
2022/01/28 09:35:17;;;;;;;17.95;12.35;;;;;;;18.22;38.64;102275.72;5011698;28;20046;-76
2022/01/28 09:37:45;;;;;;;16.65;11.93;;;;;;;18.22;38.60;102290.94;5009724;28;20065;-76
2022/01/28 09:40:13;;;;;;;19.38;12.88;;;;;;;18.22;38.62;102307.88;5009763;28;20409;-76
2022/01/28 09:42:43;;;;;;;16.63;12.63;;;;;;;18.21;38.61;102308.84;5011866;28;20050;-76
2022/01/28 09:45:16;;;;;;;18.25;11.23;;;;;;;18.22;38.66;102323.13;5010706;28;20046;-76
2022/01/28 09:47:46;;;;;;;16.15;11.40;;;;;;;18.21;38.79;102324.94;5011968;28;20046;-76
2022/01/28 09:50:14;;;;;;;16.95;11.73;;;;;;;18.22;38.66;102315.06;5011744;28;20466;-76
2022/01/28 09:52:41;;;;;;;16.08;10.88;;;;;;;18.22;38.79;102328.47;5011259;28;20050;-76
2022/01/28 09:55:09;;;;;;;14.88;10.93;;;;;;;18.21;38.78;102338.34;5011053;28;20057;-76
2022/01/28 09:57:36;;;;;;;14.70;10.85;;;;;;;18.20;38.68;102315.19;5011467;28;20389;-76
2022/01/28 10:00:06;;;;;;;17.70;12.80;;;;;;;18.20;38.56;102304.44;5009581;28;20058;-76
2022/01/28 10:02:54;;;;;;;17.17;11.40;;;;;;;18.19;38.64;102305.41;5017450;28;20062;-76
2022/01/28 10:05:34;;;;;;;16.75;11.50;;;;;;;18.18;38.65;102317.06;5007808;28;20054;-76
2022/01/28 10:08:02;;;;;;;17.65;12.05;;;;;;;18.18;38.62;102330.47;5010725;28;20049;-76
2022/01/28 10:11:15;;;;;;;19.55;12.95;;;;;;;18.18;38.83;102337.66;5010115;28;20045;-76
2022/01/28 10:13:54;;;;;;;17.13;11.05;;;;;;;18.18;38.79;102335.81;5011002;28;20041;-76
2022/01/28 10:16:24;;;;;;;16.70;11.27;;;;;;;18.18;38.76;102321.56;5010460;28;20057;-76
2022/01/28 10:18:53;;;;;;;15.02;11.23;;;;;;;18.17;38.83;102322.53;5010571;28;20045;-76
2022/01/28 10:21:22;;;;;;;17.67;11.70;;;;;;;18.17;38.81;102323.38;5010547;28;20049;-76
2022/01/28 10:24:00;;;;;;;16.80;11.50;;;;;;;18.17;38.74;102334.09;5009622;28;20045;-76
2022/01/28 10:26:39;;;;;;;14.30;11.23;;;;;;;18.17;38.83;102314.47;5011640;28;20065;-76
2022/01/28 10:29:19;;;;;;;15.98;11.25;;;;;;;18.16;38.94;102318.97;5012024;28;20073;-76
2022/01/28 10:31:50;;;;;;;15.25;10.75;;;;;;;18.17;38.80;102319.84;5011980;28;20072;-76
2022/01/28 10:34:21;;;;;;;18.20;11.90;;;;;;;18.17;38.63;102322.53;5009565;28;20054;-76
2022/01/28 10:36:50;;;;;;;15.13;11.50;;;;;;;18.16;38.81;102318.97;5010541;28;20053;-76
2022/01/28 10:39:20;;;;;;;16.92;11.02;;;;;;;18.16;38.87;102316.31;5010272;28;20076;-76
2022/01/28 10:41:58;;;;;;;18.25;11.07;;;;;;;18.17;38.83;102299.25;5011196;28;20504;-76
2022/01/28 10:44:31;;;;;;;15.07;10.43;;;;;;;18.16;38.81;102289.50;5009890;28;20523;-76
2022/01/28 10:47:01;;;;;;;16.05;10.02;;;;;;;18.16;38.89;102281.47;5017351;28;20106;-76
2022/01/28 10:49:35;;;;;;;16.70;10.88;;;;;;;18.16;38.83;102273.41;5016062;28;20239;-76
2022/01/28 10:52:13;;;;;;;15.45;10.73;;;;;;;18.17;38.78;102283.19;5017362;28;20045;-76
2022/01/28 10:54:42;;;;;;;15.60;11.50;;;;;;;18.17;38.81;102276.97;5016345;28;20056;-76
2022/01/28 10:57:10;;;;;;;13.55;9.88;;;;;;;18.18;38.78;102268.81;5016678;28;20041;-77
2022/01/28 10:59:40;;;;;;;14.32;11.15;;;;;;;18.18;38.88;102255.41;4999167;28;20046;-76
2022/01/28 11:02:08;;;;;;;14.60;10.07;;;;;;;18.19;38.89;102246.44;5015323;28;20058;-76
2022/01/28 11:04:39;;;;;;;15.25;10.75;;;;;;;18.19;38.96;102238.41;5016511;28;20045;-76
2022/01/28 11:07:07;;;;;;;12.77;9.70;;;;;;;18.20;38.95;102236.59;5031293;28;20045;-76
2022/01/28 11:09:34;;;;;;;15.77;10.00;;;;;;;18.19;38.88;102243.75;5016583;28;20378;-76
2022/01/28 11:12:02;;;;;;;13.82;9.65;;;;;;;18.19;38.86;102241.09;5017278;28;20385;-76
2022/01/28 11:14:29;;;;;;;13.48;10.07;;;;;;;18.20;38.85;102234.75;5016545;28;20049;-76
2022/01/28 11:16:58;;;;;;;13.73;10.00;;;;;;;18.19;38.96;102219.63;5015099;28;20053;-77
2022/01/28 11:19:31;;;;;;;11.07;9.20;;;;;;;18.20;38.98;102217.81;5014938;28;20060;-76
2022/01/28 11:22:20;;;;;;;13.20;10.00;;;;;;;18.21;38.93;102227.56;5016997;28;20393;-77
2022/01/28 11:25:09;;;;;;;14.23;10.00;;;;;;;18.20;39.00;102233.91;5016944;28;20735;-76
2022/01/28 11:27:38;;;;;;;13.07;9.50;;;;;;;18.20;38.98;102237.44;5016937;28;20050;-76
2022/01/28 11:30:23;;;;;;;12.02;9.30;;;;;;;18.19;38.98;102227.69;5016818;28;20041;-77
2022/01/28 11:33:10;;;;;;;13.00;8.95;;;;;;;18.19;39.18;102240.19;5016140;28;20053;-76
2022/01/28 11:35:40;;;;;;;12.40;9.73;;;;;;;18.18;39.11;102235.78;5015674;28;20045;-76
2022/01/28 11:38:29;;;;;;;11.65;9.20;;;;;;;18.16;39.20;102232.34;5016516;28;20491;-76
2022/01/28 11:41:21;;;;;;;11.63;9.10;;;;;;;18.17;39.17;102226.03;5015577;28;20389;-76
2022/01/28 11:43:51;;;;;;;12.65;9.50;;;;;;;18.14;39.12;102221.69;5014841;28;20053;-76
2022/01/28 11:46:38;;;;;;;10.70;8.02;;;;;;;18.15;39.18;102230.59;5016878;28;20046;-76
2022/01/28 11:49:07;;;;;;;11.07;8.45;;;;;;;18.15;39.29;102223.44;5016753;28;20054;-76
2022/01/28 11:51:47;;;;;;;11.18;8.43;;;;;;;18.15;39.18;102220.78;5014546;28;20058;-76
2022/01/28 11:54:18;;;;;;;10.93;8.73;;;;;;;18.15;39.24;102220.78;5015197;28;20046;-77
2022/01/28 11:56:56;;;;;;;;;;;;;;;18.14;39.19;102210.97;5014480;28;20502;-77
2022/01/28 11:59:29;;;;;;;12.43;9.13;;;;;;;18.13;39.18;102208.41;5013409;28;19921;-78
2022/01/28 12:01:56;;;;;;;12.02;9.00;;;;;;;18.11;39.16;102200.47;5012696;28;20050;-77
2022/01/28 12:04:24;;;;;;;12.23;9.25;;;;;;;18.13;39.36;102186.97;5013128;28;20049;-76
2022/01/28 12:06:55;;;;;;;11.90;9.20;;;;;;;18.12;39.84;102185.25;5011579;28;20050;-76
2022/01/28 12:09:23;;;;;;;13.20;8.88;;;;;;;18.10;39.98;102201.41;5013070;28;20061;-76
2022/01/28 12:11:51;;;;;;;10.85;8.98;;;;;;;18.11;40.33;102196.91;5012855;28;20049;-76
2022/01/28 12:14:52;;;;;;;11.27;8.57;;;;;;;18.10;40.34;102185.31;5013248;28;20049;-76
2022/01/28 12:17:32;;;;;;;16.67;14.98;;;;;;;18.05;38.96;102168.66;5011637;28;20046;-77
2022/01/28 12:20:23;;;;;;;22.33;15.18;;;;;;;17.95;39.22;102184.44;5011895;28;20057;-76
2022/01/28 12:23:02;;;;;;;18.27;14.63;;;;;;;17.86;39.61;102168.00;5013601;28;20056;-75
2022/01/28 12:25:36;;;;;;;17.23;14.75;;;;;;;17.79;39.75;102180.91;5011223;28;20050;-77
2022/01/28 12:28:18;;;;;;;11.75;9.95;;;;;;;17.81;40.78;102179.00;5011010;28;20124;-76
2022/01/28 12:30:48;;;;;;;11.13;9.93;;;;;;;17.84;40.60;102173.47;5012817;28;20046;-76
2022/01/28 12:33:22;;;;;;;14.27;10.25;;;;;;;17.89;40.75;102162.47;5013135;28;20052;-75
2022/01/28 12:35:53;;;;;;;12.88;9.63;;;;;;;17.93;40.92;102161.34;5010871;28;20413;-76
2022/01/28 12:38:22;;;;;;;12.20;9.25;;;;;;;17.95;40.73;102160.31;5011934;28;20053;-76
2022/01/28 12:40:54;;;;;;;13.13;10.35;;;;;;;17.96;40.72;102151.31;5010798;28;20057;-75
2022/01/28 12:43:24;;;;;;;15.77;12.75;;;;;;;17.94;40.17;102146.97;5010879;28;20066;-76
2022/01/28 12:46:10;;;;;;;13.02;10.93;;;;;;;17.92;40.70;102143.56;5012085;28;20053;-77
2022/01/28 12:48:52;;;;;;;12.10;9.93;;;;;;;17.90;40.81;102140.09;5010877;28;20046;-76
2022/01/28 12:51:23;;;;;;;11.25;9.25;;;;;;;17.93;41.44;102140.78;5010918;28;20057;-76
2022/01/28 12:53:54;;;;;;;11.65;9.68;;;;;;;17.94;41.18;102146.97;5011894;28;20401;-75
2022/01/28 12:56:38;;;;;;;11.02;9.35;;;;;;;17.95;41.11;102133.53;5010308;28;20053;-75
2022/01/28 12:59:07;;;;;;;12.10;9.68;;;;;;;17.96;40.78;102129.00;5010774;28;20053;-76